Aeroporto :
LOGIN :

Iscrizione | Disclaimer

   EN    FR    IT 

 










Sommario :    VFR   VFR Marginale   IFR   IFR Intensivo   IFR Molto Intensivo
Visibilità : 
Base nubi : 
>= 8 km
>= 3000ft
5 / 8 km
1000 / 3000 ft
1500m / 5 km
500 / 1000 ft
800 / 1500m
200 / 500 ft
< 800m
< 200 ft
Simboli :   Temporali  Nebbia  Neve Forte  Precipitazioni Forti  Vento > 20 kt
SIGMETs :   Varie  Temporali  Ghiacco  Turbolenza  Onda orograficha  Ceneri Vulcaniche






- Altitudine del aeroporto : 2356 ft


LZTT - Poprad Tatry

ULTIMO METAR :
  • 191630Z 22005KT 9999 BKN040 13/09 Q1017

METARs OBSOLETI :
  • 191600Z 23007KT 9999 BKN042 14/08 Q1017 NOSIG
  • 191530Z 23007KT 9999 BKN043 13/08 Q1016 NOSIG
  • 191500Z 24008KT 9999 BKN043 14/08 Q1016 NOSIG
  • 191430Z 24009KT 9999 BKN040 15/08 Q1016 NOSIG
  • 191400Z 22011KT 9999 BKN040 15/08 Q1016 NOSIG

TAF TAF LZTT
Valido dal 19 a 12 ore il 20 a 12 ore UTC


191100Z 1912/2012 25010KT 9999 BKN037
BECMG 1918/1920 VRB02KT
TEMPO 2000/2007 4000 BR SCT003
PROB40
TEMPO 2001/2006 1200 BCFG BKN001
BECMG 2007/2009 26007KT SCT040



MetMap, La meteo Aeronautica in un colpo d'occhio ! - Copyright ORBIFLY Dicembre 2007 - Disclaimer

ORBIFLY MET'MAP TEAM :

Programmazione e sviluppo : Alexandra Zaïnal
Concezione e sviluppo : Baudouin d'Aumeries
Co-Programmazione e sviluppo : Marc-Olivier Méhu
Supporto tecnico e logistico : Manuel Goepfert
Aiuto per la traduzione : Arnaldo La Scala

Contatto : metmap@orbifly.com




FONTI E CREDITI :

   NOAA